createdAt,value
2023-02-08T00:01:22.759Z,0.13
2023-02-08T00:03:54.656Z,-0.10
2023-02-08T00:06:22.500Z,-0.26
2023-02-08T00:08:49.985Z,-0.41
2023-02-08T00:11:17.803Z,-0.77
2023-02-08T00:13:45.294Z,-0.60
2023-02-08T00:16:14.941Z,-0.51
2023-02-08T00:18:42.741Z,-0.47
2023-02-08T00:21:12.904Z,-0.45
2023-02-08T00:23:40.685Z,-0.36
2023-02-08T00:26:09.123Z,0.00
2023-02-08T00:28:37.391Z,-0.15
2023-02-08T00:31:06.020Z,-0.06
2023-02-08T00:33:33.756Z,-0.01
2023-02-08T00:36:03.341Z,-0.10
2023-02-08T00:38:31.450Z,0.15
2023-02-08T00:40:58.938Z,-0.01
2023-02-08T00:43:26.652Z,-0.01
2023-02-08T00:45:58.519Z,0.31
2023-02-08T00:48:27.926Z,0.16
2023-02-08T00:51:21.538Z,0.23
2023-02-08T00:53:50.553Z,0.15
2023-02-08T00:56:18.250Z,0.20
2023-02-08T00:58:46.455Z,0.26
2023-02-08T01:01:14.385Z,0.33
2023-02-08T01:03:44.073Z,0.21
2023-02-08T01:06:18.315Z,0.41
2023-02-08T01:08:46.117Z,0.13
2023-02-08T01:11:20.054Z,0.11
2023-02-08T01:13:50.848Z,0.07
2023-02-08T01:16:27.827Z,-0.19
2023-02-08T01:18:58.216Z,-0.02
2023-02-08T01:21:35.444Z,-0.25
2023-02-08T01:24:06.800Z,-0.09
2023-02-08T01:26:34.526Z,0.03
2023-02-08T01:29:02.329Z,-0.14
2023-02-08T01:31:34.879Z,0.03
2023-02-08T01:34:03.833Z,-0.18
2023-02-08T01:36:32.945Z,-0.28
2023-02-08T01:39:01.451Z,-0.16
2023-02-08T01:41:33.559Z,-0.43
2023-02-08T01:44:12.575Z,-0.49
2023-02-08T01:46:46.532Z,-0.68
2023-02-08T01:49:29.517Z,-0.45
2023-02-08T01:52:14.971Z,-0.76
2023-02-08T01:54:56.619Z,-0.82
2023-02-08T01:57:25.710Z,-0.65
2023-02-08T02:00:24.327Z,-0.70
2023-02-08T02:02:55.714Z,-0.91
2023-02-08T02:05:30.449Z,-0.88
2023-02-08T02:08:01.090Z,-0.97
2023-02-08T02:10:32.449Z,-0.59
2023-02-08T02:13:08.560Z,-0.70
2023-02-08T02:15:36.474Z,-0.60
2023-02-08T02:18:07.341Z,-0.80
2023-02-08T02:20:58.798Z,-0.92
2023-02-08T02:24:03.060Z,-0.87
2023-02-08T02:27:08.500Z,-0.81
2023-02-08T02:30:33.015Z,-0.57
2023-02-08T02:33:29.873Z,-0.64
2023-02-08T02:36:32.669Z,-0.78
2023-02-08T02:39:27.521Z,-1.14
2023-02-08T02:42:30.898Z,-1.06
2023-02-08T02:45:13.449Z,-1.16
2023-02-08T02:48:00.421Z,-1.01
2023-02-08T02:50:44.827Z,-1.00
2023-02-08T02:53:53.199Z,-1.15
2023-02-08T02:56:32.384Z,-1.20
2023-02-08T02:59:06.398Z,-1.13
2023-02-08T03:01:34.397Z,-0.96
2023-02-08T03:04:32.567Z,-1.02
2023-02-08T03:07:05.468Z,-1.11
2023-02-08T03:10:10.060Z,-1.43
2023-02-08T03:12:58.431Z,-1.20
2023-02-08T03:15:51.929Z,-1.39
2023-02-08T03:18:34.540Z,-1.58
2023-02-08T03:21:42.406Z,-1.48
2023-02-08T03:24:23.486Z,-1.59
2023-02-08T03:27:32.359Z,-1.55
2023-02-08T03:30:33.292Z,-1.78
2023-02-08T03:33:25.517Z,-1.41
2023-02-08T03:36:23.110Z,-1.25
2023-02-08T03:38:51.975Z,-1.44
2023-02-08T03:41:29.611Z,-1.76
2023-02-08T03:44:09.675Z,-1.80
2023-02-08T03:46:55.557Z,-1.53
2023-02-08T03:49:29.680Z,-1.55
2023-02-08T03:52:01.816Z,-1.61
2023-02-08T03:54:37.030Z,-1.59
2023-02-08T03:57:27.494Z,-1.70
2023-02-08T04:00:09.310Z,-1.62
2023-02-08T04:03:02.056Z,-1.82
2023-02-08T04:05:30.246Z,-1.68
2023-02-08T04:07:57.878Z,-1.88
2023-02-08T04:10:25.348Z,-1.77
2023-02-08T04:12:53.315Z,-1.90
2023-02-08T04:15:22.068Z,-1.57
2023-02-08T04:17:49.540Z,-1.64
2023-02-08T04:20:17.114Z,-1.65
2023-02-08T04:22:44.654Z,-1.69
2023-02-08T04:25:12.181Z,-1.87
2023-02-08T04:27:39.683Z,-1.79
2023-02-08T04:30:07.518Z,-1.78
2023-02-08T04:32:35.092Z,-1.72
2023-02-08T04:35:02.699Z,-1.72
2023-02-08T04:37:30.091Z,-1.93
2023-02-08T04:39:57.582Z,-1.86
2023-02-08T04:42:25.097Z,-1.88
2023-02-08T04:44:52.560Z,-1.89
2023-02-08T04:47:20.054Z,-2.00
2023-02-08T04:49:47.499Z,-2.02
2023-02-08T04:52:15.042Z,-1.90
2023-02-08T04:54:42.453Z,-1.75
2023-02-08T04:57:14.409Z,-1.96
2023-02-08T04:59:42.220Z,-1.81
2023-02-08T05:02:09.946Z,-1.69
2023-02-08T05:04:37.480Z,-1.75
2023-02-08T05:07:05.201Z,-1.68
2023-02-08T05:09:32.724Z,-1.61
2023-02-08T05:12:00.303Z,-1.82
2023-02-08T05:14:27.812Z,-1.90
2023-02-08T05:17:01.140Z,-2.00
2023-02-08T05:19:28.718Z,-1.68
2023-02-08T05:21:56.184Z,-1.67
2023-02-08T05:24:23.915Z,-1.70
2023-02-08T05:26:53.642Z,-1.75
2023-02-08T05:29:21.186Z,-1.61
2023-02-08T05:31:48.736Z,-1.79
2023-02-08T05:34:16.299Z,-1.66
2023-02-08T05:36:43.833Z,-1.51
2023-02-08T05:39:11.283Z,-1.20
2023-02-08T05:41:38.781Z,-1.48
2023-02-08T05:44:06.374Z,-1.16
2023-02-08T05:46:35.015Z,-1.01
2023-02-08T05:49:04.042Z,-0.75
2023-02-08T05:51:32.891Z,-0.75
2023-02-08T05:54:00.370Z,-1.00
2023-02-08T05:56:28.631Z,-0.80
2023-02-08T05:59:00.306Z,-1.02
2023-02-08T06:01:28.208Z,-1.00
2023-02-08T06:03:56.052Z,-0.90
2023-02-08T06:06:23.503Z,-0.92
2023-02-08T06:08:50.975Z,-0.93
2023-02-08T06:11:19.816Z,-1.04
2023-02-08T06:13:47.928Z,-1.07
2023-02-08T06:16:17.758Z,-0.64
2023-02-08T06:18:47.183Z,-0.39
2023-02-08T06:21:15.988Z,-0.75
2023-02-08T06:23:43.448Z,-0.81
2023-02-08T06:26:11.484Z,-0.88
2023-02-08T06:28:38.983Z,-0.68
2023-02-08T06:31:08.454Z,-0.61
2023-02-08T06:33:35.957Z,-0.85
2023-02-08T06:36:03.683Z,-1.03
2023-02-08T06:38:32.325Z,-0.90
2023-02-08T06:40:59.805Z,-0.86
2023-02-08T06:43:27.315Z,-0.86
2023-02-08T06:45:54.888Z,-0.70
2023-02-08T06:48:22.460Z,-0.72
2023-02-08T06:50:53.663Z,-0.89
2023-02-08T06:53:21.661Z,-0.76
2023-02-08T06:55:52.978Z,-0.76
2023-02-08T06:58:20.742Z,-0.64
2023-02-08T07:00:48.438Z,-0.85
2023-02-08T07:03:17.699Z,-0.61
2023-02-08T07:06:03.496Z,-0.56
2023-02-08T07:08:33.618Z,-0.60
2023-02-08T07:11:05.655Z,-0.38
2023-02-08T07:13:33.121Z,-0.04
2023-02-08T07:16:00.649Z,-0.05
2023-02-08T07:18:28.055Z,0.08
2023-02-08T07:20:55.512Z,0.40
2023-02-08T07:23:23.079Z,0.26
2023-02-08T07:26:09.106Z,0.83
2023-02-08T07:28:39.082Z,1.24
2023-02-08T07:31:16.367Z,1.15
2023-02-08T07:33:44.188Z,0.89
2023-02-08T07:36:12.459Z,1.12
2023-02-08T07:38:39.991Z,1.07
2023-02-08T07:41:13.974Z,1.74
2023-02-08T07:43:43.061Z,2.06
2023-02-08T07:46:18.427Z,1.61
2023-02-08T07:48:46.560Z,1.53
2023-02-08T07:51:14.346Z,1.35
2023-02-08T07:53:41.820Z,1.32
2023-02-08T07:56:10.479Z,1.65
2023-02-08T07:58:38.707Z,1.97
2023-02-08T08:01:20.942Z,2.22
2023-02-08T08:03:50.816Z,1.88
2023-02-08T08:06:20.544Z,2.24
2023-02-08T08:08:48.489Z,2.01
2023-02-08T08:11:17.743Z,2.07
2023-02-08T08:13:45.233Z,2.12
2023-02-08T08:16:13.371Z,2.32
2023-02-08T08:18:41.753Z,2.59
2023-02-08T08:21:09.488Z,2.38
2023-02-08T08:23:37.884Z,2.49
2023-02-08T08:26:20.528Z,2.70
2023-02-08T08:28:48.952Z,2.51
2023-02-08T08:31:21.743Z,2.68
2023-02-08T08:33:50.272Z,2.81
2023-02-08T08:36:17.828Z,2.82
2023-02-08T08:38:45.323Z,3.08
2023-02-08T08:41:18.003Z,3.20
2023-02-08T08:43:45.999Z,3.23
2023-02-08T08:46:15.160Z,3.19
2023-02-08T08:48:43.051Z,3.07
2023-02-08T08:51:10.582Z,3.28
2023-02-08T08:53:38.416Z,3.31
2023-02-08T08:56:06.884Z,3.57
2023-02-08T08:58:34.438Z,3.64
2023-02-08T09:01:02.369Z,4.29
2023-02-08T09:03:30.480Z,3.94
2023-02-08T09:05:58.477Z,3.74
2023-02-08T09:08:26.032Z,4.10
2023-02-08T09:10:53.577Z,4.30
2023-02-08T09:13:21.863Z,4.24
2023-02-08T09:15:50.427Z,4.04
2023-02-08T09:18:18.054Z,3.99
2023-02-08T09:20:45.799Z,4.18
2023-02-08T09:23:14.623Z,4.57
2023-02-08T09:25:42.205Z,4.83
2023-02-08T09:28:09.856Z,5.18
2023-02-08T09:30:37.362Z,5.10
2023-02-08T09:33:07.432Z,4.99
2023-02-08T09:35:34.954Z,5.09
2023-02-08T09:38:04.556Z,5.37
2023-02-08T09:40:54.807Z,5.32
2023-02-08T09:44:10.967Z,5.08
2023-02-08T09:46:43.701Z,4.99
2023-02-08T09:49:20.069Z,5.07
2023-02-08T09:51:59.024Z,5.27
2023-02-08T09:54:57.358Z,5.72
2023-02-08T09:57:31.647Z,5.38
2023-02-08T10:00:07.408Z,5.03
2023-02-08T10:02:35.236Z,5.05
2023-02-08T10:05:15.085Z,4.69
2023-02-08T10:07:43.902Z,4.51
2023-02-08T10:10:33.839Z,4.52
2023-02-08T10:13:41.535Z,4.86
2023-02-08T10:16:39.424Z,5.12
2023-02-08T10:19:40.485Z,5.28
2023-02-08T10:22:44.258Z,5.34
2023-02-08T10:25:36.229Z,5.07
2023-02-08T10:28:31.114Z,5.11
2023-02-08T10:31:41.004Z,5.09
2023-02-08T10:34:32.981Z,4.50
2023-02-08T10:37:03.982Z,5.05
2023-02-08T10:39:35.733Z,5.27
2023-02-08T10:42:09.638Z,5.17
2023-02-08T10:44:41.861Z,5.22
2023-02-08T10:47:23.387Z,5.25
2023-02-08T10:50:43.832Z,5.06
2023-02-08T10:53:28.876Z,5.19
2023-02-08T10:56:05.738Z,5.68
2023-02-08T10:58:33.911Z,5.69
2023-02-08T11:01:02.530Z,5.80
2023-02-08T11:03:32.290Z,6.15
2023-02-08T11:05:59.982Z,6.43
2023-02-08T11:08:29.349Z,6.92
2023-02-08T11:11:05.625Z,7.24
2023-02-08T11:13:47.189Z,7.42
2023-02-08T11:16:28.387Z,7.98
2023-02-08T11:19:02.152Z,8.46
2023-02-08T11:21:37.753Z,8.94
2023-02-08T11:24:47.099Z,9.74
2023-02-08T11:27:42.557Z,10.18
2023-02-08T11:30:23.507Z,9.68
2023-02-08T11:33:21.833Z,8.72
2023-02-08T11:36:11.624Z,8.02
2023-02-08T11:38:51.988Z,6.94
2023-02-08T11:41:21.880Z,6.58
2023-02-08T11:44:16.227Z,6.26
2023-02-08T11:46:48.865Z,6.42
2023-02-08T11:49:24.943Z,6.11
2023-02-08T11:51:53.345Z,5.82
2023-02-08T11:54:46.857Z,5.56
2023-02-08T11:57:27.956Z,5.34
2023-02-08T12:00:20.720Z,6.49
2023-02-08T12:02:51.598Z,7.17
2023-02-08T12:05:35.680Z,8.27
2023-02-08T12:08:25.893Z,9.72
2023-02-08T12:10:58.970Z,10.26
2023-02-08T12:13:50.559Z,10.69
2023-02-08T12:16:32.906Z,10.98
2023-02-08T12:19:56.165Z,11.48
2023-02-08T12:22:31.383Z,11.40
2023-02-08T12:25:42.563Z,10.62
2023-02-08T12:28:27.991Z,10.18
2023-02-08T12:31:46.080Z,10.97
2023-02-08T12:34:46.862Z,10.54
2023-02-08T12:37:47.974Z,10.88
2023-02-08T12:41:02.933Z,9.95
2023-02-08T12:44:02.209Z,9.55
2023-02-08T12:46:41.260Z,9.18
2023-02-08T12:49:28.232Z,10.32
2023-02-08T12:52:36.888Z,11.09
2023-02-08T12:55:26.393Z,10.18
2023-02-08T12:58:00.768Z,10.18
2023-02-08T13:00:36.339Z,10.44
2023-02-08T13:03:32.082Z,11.14
2023-02-08T13:06:02.624Z,11.61
2023-02-08T13:08:58.632Z,10.78
2023-02-08T13:11:57.219Z,9.90
2023-02-08T13:14:24.616Z,9.58
2023-02-08T13:16:59.216Z,9.43
2023-02-08T13:20:00.002Z,9.06
2023-02-08T13:22:35.165Z,9.61
2023-02-08T13:25:17.455Z,10.12
2023-02-08T13:27:46.803Z,9.96
2023-02-08T13:30:39.966Z,10.23
2023-02-08T13:34:00.917Z,11.06
2023-02-08T13:36:39.757Z,11.16
2023-02-08T13:39:33.937Z,10.71
2023-02-08T13:42:05.417Z,10.02
2023-02-08T13:44:39.715Z,9.56
2023-02-08T13:47:08.478Z,9.44
2023-02-08T13:49:50.955Z,9.68
2023-02-08T13:52:48.097Z,8.98
2023-02-08T13:55:35.806Z,9.12
2023-02-08T13:58:22.112Z,8.77
2023-02-08T14:00:56.624Z,8.51
2023-02-08T14:03:35.174Z,8.64
2023-02-08T14:06:03.774Z,8.47
2023-02-08T14:08:41.775Z,8.29
2023-02-08T14:11:40.873Z,7.94
2023-02-08T14:14:24.420Z,7.87
2023-02-08T14:17:19.464Z,7.54
2023-02-08T14:20:00.287Z,7.61
2023-02-08T14:22:39.650Z,7.49
2023-02-08T14:25:46.656Z,7.65
2023-02-08T14:28:28.158Z,7.72
2023-02-08T14:31:00.985Z,7.76
2023-02-08T14:33:56.867Z,7.41
2023-02-08T14:36:35.072Z,6.77
2023-02-08T14:39:39.802Z,6.52
2023-02-08T14:42:13.977Z,6.53
2023-02-08T14:44:42.215Z,6.44
2023-02-08T14:47:30.956Z,6.40
2023-02-08T14:50:30.088Z,6.24
2023-02-08T14:53:07.846Z,6.03
2023-02-08T14:56:03.586Z,5.78
2023-02-08T14:58:37.294Z,6.09
2023-02-08T15:01:28.560Z,5.99
2023-02-08T15:04:02.365Z,5.80
2023-02-08T15:07:13.608Z,5.58
2023-02-08T15:09:43.970Z,5.31
2023-02-08T15:12:36.065Z,5.15
2023-02-08T15:15:06.564Z,5.14
2023-02-08T15:17:46.112Z,4.92
2023-02-08T15:20:29.668Z,4.72
2023-02-08T15:23:20.613Z,4.91
2023-02-08T15:26:27.151Z,4.72
2023-02-08T15:28:59.643Z,4.72
2023-02-08T15:31:33.935Z,4.61
2023-02-08T15:34:03.554Z,4.51
2023-02-08T15:36:38.429Z,4.32
2023-02-08T15:39:39.594Z,4.26
2023-02-08T15:42:18.634Z,4.41
2023-02-08T15:44:48.633Z,4.13
2023-02-08T15:47:39.946Z,3.92
2023-02-08T15:50:18.043Z,3.96
2023-02-08T15:52:46.809Z,3.81
2023-02-08T15:55:19.276Z,3.94
2023-02-08T15:58:00.124Z,3.99
2023-02-08T16:00:36.923Z,3.97
2023-02-08T16:03:23.679Z,3.83
2023-02-08T16:06:05.676Z,3.62
2023-02-08T16:08:37.245Z,3.52
2023-02-08T16:11:12.344Z,3.30
2023-02-08T16:13:45.744Z,3.29
2023-02-08T16:16:42.806Z,3.19
2023-02-08T16:19:32.953Z,3.35
2023-02-08T16:22:28.581Z,3.02
2023-02-08T16:25:45.387Z,3.00
2023-02-08T16:28:59.947Z,2.94
2023-02-08T16:31:30.944Z,2.96
2023-02-08T16:34:17.462Z,2.73
2023-02-08T16:36:53.270Z,2.55
2023-02-08T16:40:04.934Z,2.38
2023-02-08T16:42:39.911Z,2.06
2023-02-08T16:45:22.625Z,2.13
2023-02-08T16:47:54.965Z,2.12
2023-02-08T16:50:27.881Z,2.11
2023-02-08T16:53:02.958Z,2.06
2023-02-08T16:55:37.093Z,1.96
2023-02-08T16:58:04.625Z,1.80
2023-02-08T17:00:35.507Z,1.71
2023-02-08T17:03:04.361Z,1.62
2023-02-08T17:05:39.452Z,1.51
2023-02-08T17:08:13.351Z,1.60
2023-02-08T17:10:42.409Z,1.58
2023-02-08T17:13:32.070Z,1.56
2023-02-08T17:16:20.200Z,1.51
2023-02-08T17:18:48.954Z,1.60
2023-02-08T17:21:20.675Z,1.61
2023-02-08T17:23:48.255Z,1.49
2023-02-08T17:26:20.356Z,1.56
2023-02-08T17:28:50.280Z,1.52
2023-02-08T17:31:19.175Z,1.57
2023-02-08T17:33:48.527Z,1.39
2023-02-08T17:36:19.135Z,1.34
2023-02-08T17:38:49.270Z,1.29
2023-02-08T17:41:20.454Z,1.24
2023-02-08T17:43:54.337Z,1.11
2023-02-08T17:46:25.704Z,1.08
2023-02-08T17:48:59.463Z,1.08
2023-02-08T17:51:30.481Z,1.07
2023-02-08T17:53:59.512Z,1.12
2023-02-08T17:56:29.450Z,1.01
2023-02-08T17:59:05.628Z,1.05
2023-02-08T18:01:33.600Z,1.05
2023-02-08T18:04:10.383Z,1.04
2023-02-08T18:06:38.447Z,0.97
2023-02-08T18:09:06.433Z,0.95
2023-02-08T18:11:35.690Z,0.94
2023-02-08T18:14:08.280Z,0.80
2023-02-08T18:16:37.606Z,0.68
2023-02-08T18:19:06.756Z,1.39
2023-02-08T18:21:37.580Z,1.27
2023-02-08T18:24:10.338Z,1.56
2023-02-08T18:26:43.699Z,1.15
2023-02-08T18:29:13.943Z,0.38
2023-02-08T18:31:44.660Z,0.22
2023-02-08T18:34:16.741Z,0.15
2023-02-08T18:37:10.823Z,-0.01
2023-02-08T18:39:40.091Z,0.12
2023-02-08T18:42:08.090Z,-0.03
2023-02-08T18:44:38.885Z,0.09
2023-02-08T18:47:09.508Z,-0.06
2023-02-08T18:49:43.515Z,-0.20
2023-02-08T18:52:20.388Z,-0.16
2023-02-08T18:54:51.544Z,0.08
2023-02-08T18:57:21.215Z,-0.10
2023-02-08T18:59:50.090Z,-0.07
2023-02-08T19:02:23.451Z,-0.23
2023-02-08T19:04:51.744Z,-0.27
2023-02-08T19:07:26.873Z,-0.35
2023-02-08T19:09:55.223Z,-0.23
2023-02-08T19:12:27.422Z,-0.37
2023-02-08T19:14:56.429Z,-0.31
2023-02-08T19:17:24.495Z,-0.31
2023-02-08T19:19:55.544Z,-0.24
2023-02-08T19:22:25.906Z,-0.22
2023-02-08T19:25:19.694Z,-0.24
2023-02-08T19:27:59.641Z,-0.20
2023-02-08T19:30:34.881Z,-0.15
2023-02-08T19:33:03.618Z,0.07
2023-02-08T19:35:40.579Z,-0.15
2023-02-08T19:38:10.127Z,-0.24
2023-02-08T19:40:39.840Z,-0.34
2023-02-08T19:43:09.923Z,-0.38
2023-02-08T19:45:44.936Z,-0.52
2023-02-08T19:48:15.405Z,-0.46
2023-02-08T19:50:56.963Z,-0.30
2023-02-08T19:53:25.008Z,-0.44
2023-02-08T19:56:17.831Z,-0.36
2023-02-08T19:58:48.516Z,-0.42
2023-02-08T20:01:37.312Z,-0.44
2023-02-08T20:04:07.090Z,-0.54
2023-02-08T20:06:39.282Z,-0.38
2023-02-08T20:09:12.070Z,-0.42
2023-02-08T20:11:55.875Z,-0.60
2023-02-08T20:14:27.990Z,-0.68
2023-02-08T20:16:55.695Z,-0.72
2023-02-08T20:19:23.389Z,-0.57
2023-02-08T20:21:52.762Z,-0.67
2023-02-08T20:24:42.588Z,-0.78
2023-02-08T20:27:10.552Z,-0.78
2023-02-08T20:29:42.765Z,-0.37
2023-02-08T20:32:13.734Z,-0.74
2023-02-08T20:34:53.941Z,-0.83
2023-02-08T20:37:26.266Z,-0.85
2023-02-08T20:39:53.872Z,-0.86
2023-02-08T20:42:22.224Z,-0.60
2023-02-08T20:44:50.075Z,-0.89
2023-02-08T20:47:21.823Z,-1.05
2023-02-08T20:49:51.640Z,-1.15
2023-02-08T20:52:22.534Z,-1.12
2023-02-08T20:54:54.352Z,-1.22
2023-02-08T20:57:22.147Z,-1.18
2023-02-08T20:59:53.427Z,-1.33
2023-02-08T21:02:23.429Z,-1.27
2023-02-08T21:04:53.160Z,-1.01
2023-02-08T21:07:20.987Z,-1.14
2023-02-08T21:09:48.785Z,-1.17
2023-02-08T21:12:38.288Z,-0.73
2023-02-08T21:15:09.736Z,-0.89
2023-02-08T21:17:40.864Z,-1.13
2023-02-08T21:20:10.924Z,-1.26
2023-02-08T21:22:43.317Z,-0.89
2023-02-08T21:25:12.233Z,-0.90
2023-02-08T21:27:42.151Z,-1.01
2023-02-08T21:30:11.846Z,-1.16
2023-02-08T21:32:46.309Z,-1.16
2023-02-08T21:35:15.103Z,-1.12
2023-02-08T21:37:44.087Z,-0.99
2023-02-08T21:40:31.877Z,-1.14
2023-02-08T21:43:19.487Z,-1.33
2023-02-08T21:45:48.383Z,-1.42
2023-02-08T21:48:37.175Z,-1.36
2023-02-08T21:51:25.707Z,-1.56
2023-02-08T21:54:13.656Z,-1.69
2023-02-08T21:56:43.119Z,-1.65
2023-02-08T21:59:11.804Z,-1.58
2023-02-08T22:01:41.635Z,-1.59
2023-02-08T22:04:10.762Z,-1.60
2023-02-08T22:06:38.301Z,-1.66
2023-02-08T22:09:06.732Z,-1.90
2023-02-08T22:11:34.207Z,-1.72
2023-02-08T22:14:03.292Z,-1.34
2023-02-08T22:16:33.111Z,-0.99
2023-02-08T22:19:02.140Z,-0.68
2023-02-08T22:21:29.784Z,-1.15
2023-02-08T22:23:57.592Z,-1.28
2023-02-08T22:26:25.747Z,-1.38
2023-02-08T22:28:53.974Z,-1.39
2023-02-08T22:31:23.503Z,-1.41
2023-02-08T22:33:53.917Z,-1.40
2023-02-08T22:36:22.383Z,-1.51
2023-02-08T22:38:49.966Z,-1.43
2023-02-08T22:41:18.257Z,-1.36
2023-02-08T22:43:46.771Z,-1.27
2023-02-08T22:46:18.570Z,-1.16
2023-02-08T22:48:47.198Z,-1.18
2023-02-08T22:51:18.994Z,-1.19
2023-02-08T22:53:52.282Z,-1.26
2023-02-08T22:56:20.223Z,-1.29
2023-02-08T22:58:49.952Z,-1.32
2023-02-08T23:01:25.268Z,-1.24
2023-02-08T23:03:55.115Z,-1.62
2023-02-08T23:06:24.289Z,-1.66
2023-02-08T23:08:51.899Z,-1.76
2023-02-08T23:11:21.676Z,-1.69
2023-02-08T23:13:49.255Z,-1.59
2023-02-08T23:16:19.141Z,-1.68
2023-02-08T23:18:47.145Z,-1.73
2023-02-08T23:21:20.334Z,-2.00
2023-02-08T23:23:49.136Z,-1.87
2023-02-08T23:26:19.840Z,-1.49
2023-02-08T23:28:50.835Z,-1.60
2023-02-08T23:31:18.953Z,-1.30
2023-02-08T23:33:47.185Z,-1.45
2023-02-08T23:36:18.444Z,-1.64
2023-02-08T23:38:46.505Z,-1.71
2023-02-08T23:41:20.853Z,-1.79
2023-02-08T23:43:51.575Z,-1.75
2023-02-08T23:46:24.189Z,-1.68
2023-02-08T23:48:52.381Z,-1.41
2023-02-08T23:51:22.532Z,-1.39
2023-02-08T23:53:55.268Z,-1.31
2023-02-08T23:56:32.453Z,-1.50
2023-02-08T23:59:00.999Z,-1.34
